sensor_id;sensor_type;location;lat;lon;timestamp;pressure;altitude;pressure_sealevel;temperature;humidity
55757;BME280;41676;44.610;44.078;2023-08-06T00:04:32;99946.22;;;23.80;61.13
55757;BME280;41676;44.610;44.078;2023-08-06T00:09:32;99910.69;;;23.77;60.93
55757;BME280;41676;44.610;44.078;2023-08-06T00:14:33;99934.09;;;24.03;59.63
55757;BME280;41676;44.610;44.078;2023-08-06T00:19:34;99944.47;;;24.27;58.32
55757;BME280;41676;44.610;44.078;2023-08-06T00:24:35;99951.50;;;24.23;59.66
55757;BME280;41676;44.610;44.078;2023-08-06T00:29:36;99956.28;;;23.90;61.86
55757;BME280;41676;44.610;44.078;2023-08-06T00:34:36;99931.28;;;23.30;64.78
55757;BME280;41676;44.610;44.078;2023-08-06T00:39:37;99948.34;;;23.26;65.75
55757;BME280;41676;44.610;44.078;2023-08-06T00:44:38;99919.59;;;23.19;65.51
55757;BME280;41676;44.610;44.078;2023-08-06T00:49:39;99937.03;;;23.34;65.53
55757;BME280;41676;44.610;44.078;2023-08-06T00:54:41;99912.53;;;23.18;65.46
55757;BME280;41676;44.610;44.078;2023-08-06T00:59:42;99930.88;;;23.54;62.60
55757;BME280;41676;44.610;44.078;2023-08-06T01:04:42;99899.28;;;23.69;60.34
55757;BME280;41676;44.610;44.078;2023-08-06T01:15:29;99937.00;;;23.81;62.92
55757;BME280;41676;44.610;44.078;2023-08-06T01:20:31;99924.03;;;23.41;63.53
55757;BME280;41676;44.610;44.078;2023-08-06T01:26:10;99944.50;;;23.16;67.72
55757;BME280;41676;44.610;44.078;2023-08-06T01:31:20;99901.66;;;22.44;69.46
55757;BME280;41676;44.610;44.078;2023-08-06T01:36:22;99934.31;;;22.37;68.73
55757;BME280;41676;44.610;44.078;2023-08-06T01:41:24;99948.13;;;22.36;69.67
55757;BME280;41676;44.610;44.078;2023-08-06T01:46:24;99881.75;;;21.79;70.02
55757;BME280;41676;44.610;44.078;2023-08-06T01:51:25;99912.88;;;21.81;70.82
55757;BME280;41676;44.610;44.078;2023-08-06T01:56:26;99939.41;;;21.84;71.61
55757;BME280;41676;44.610;44.078;2023-08-06T02:01:27;99913.22;;;21.63;72.19
55757;BME280;41676;44.610;44.078;2023-08-06T02:06:27;99917.59;;;21.69;72.37
55757;BME280;41676;44.610;44.078;2023-08-06T02:11:28;99936.75;;;21.89;72.17
55757;BME280;41676;44.610;44.078;2023-08-06T02:16:29;99880.78;;;21.63;72.00
55757;BME280;41676;44.610;44.078;2023-08-06T02:21:29;99959.47;;;22.32;70.78
55757;BME280;41676;44.610;44.078;2023-08-06T02:26:30;99934.69;;;22.46;69.96
55757;BME280;41676;44.610;44.078;2023-08-06T02:31:31;99943.22;;;22.60;70.29
55757;BME280;41676;44.610;44.078;2023-08-06T02:36:32;99939.88;;;22.79;68.92
55757;BME280;41676;44.610;44.078;2023-08-06T02:41:32;99939.28;;;23.05;67.54
55757;BME280;41676;44.610;44.078;2023-08-06T02:46:33;99961.75;;;23.47;66.25
55757;BME280;41676;44.610;44.078;2023-08-06T02:51:34;99951.81;;;23.68;65.59
55757;BME280;41676;44.610;44.078;2023-08-06T02:56:34;99955.31;;;24.32;64.92
55757;BME280;41676;44.610;44.078;2023-08-06T03:01:35;99954.25;;;25.50;61.78
55757;BME280;41676;44.610;44.078;2023-08-06T03:06:36;99885.78;;;25.98;58.85
55757;BME280;41676;44.610;44.078;2023-08-06T03:11:37;99924.47;;;27.08;56.70
55757;BME280;41676;44.610;44.078;2023-08-06T03:16:38;99944.47;;;28.18;55.09
55757;BME280;41676;44.610;44.078;2023-08-06T03:21:39;99869.34;;;28.73;53.23
55757;BME280;41676;44.610;44.078;2023-08-06T03:26:39;99892.72;;;29.53;51.16
55757;BME280;41676;44.610;44.078;2023-08-06T03:31:40;99931.84;;;30.99;49.31
55757;BME280;41676;44.610;44.078;2023-08-06T03:36:41;99896.78;;;31.18;47.56
55757;BME280;41676;44.610;44.078;2023-08-06T03:41:42;99947.94;;;32.02;46.94
55757;BME280;41676;44.610;44.078;2023-08-06T03:46:43;99944.22;;;32.24;45.50
55757;BME280;41676;44.610;44.078;2023-08-06T03:51:43;99945.41;;;32.58;44.21
55757;BME280;41676;44.610;44.078;2023-08-06T03:56:44;99944.03;;;33.55;42.73
55757;BME280;41676;44.610;44.078;2023-08-06T04:01:45;99880.91;;;33.41;40.86
55757;BME280;41676;44.610;44.078;2023-08-06T04:06:46;99941.81;;;34.07;40.20
55757;BME280;41676;44.610;44.078;2023-08-06T04:11:46;99942.13;;;34.27;39.43
55757;BME280;41676;44.610;44.078;2023-08-06T04:16:47;99925.03;;;34.13;40.13
55757;BME280;41676;44.610;44.078;2023-08-06T04:21:48;99938.66;;;34.72;38.28
55757;BME280;41676;44.610;44.078;2023-08-06T04:26:48;99934.03;;;34.64;39.00
55757;BME280;41676;44.610;44.078;2023-08-06T04:31:49;99933.25;;;34.75;38.12
55757;BME280;41676;44.610;44.078;2023-08-06T04:36:50;99879.69;;;34.01;39.42
55757;BME280;41676;44.610;44.078;2023-08-06T04:41:50;99927.59;;;34.39;37.98
55757;BME280;41676;44.610;44.078;2023-08-06T04:46:51;99882.09;;;34.12;38.31
55757;BME280;41676;44.610;44.078;2023-08-06T04:51:52;99814.66;;;33.88;36.28
55757;BME280;41676;44.610;44.078;2023-08-06T04:56:53;99912.47;;;34.03;36.61
55757;BME280;41676;44.610;44.078;2023-08-06T05:01:53;99911.59;;;33.90;37.44
55757;BME280;41676;44.610;44.078;2023-08-06T05:06:54;99887.44;;;33.66;37.15
55757;BME280;41676;44.610;44.078;2023-08-06T05:11:55;99895.47;;;33.12;37.24
55757;BME280;41676;44.610;44.078;2023-08-06T05:16:56;99899.78;;;32.57;37.85
55757;BME280;41676;44.610;44.078;2023-08-06T05:21:56;99847.09;;;32.03;38.08
55757;BME280;41676;44.610;44.078;2023-08-06T05:26:57;99889.28;;;32.50;37.86
55757;BME280;41676;44.610;44.078;2023-08-06T05:31:58;99891.69;;;32.43;38.01
55757;BME280;41676;44.610;44.078;2023-08-06T05:36:58;99884.78;;;32.46;37.15
55757;BME280;41676;44.610;44.078;2023-08-06T05:41:59;99879.72;;;32.65;37.46
55757;BME280;41676;44.610;44.078;2023-08-06T05:47:00;99853.84;;;32.58;36.67
55757;BME280;41676;44.610;44.078;2023-08-06T05:52:01;99873.81;;;32.84;36.28
55757;BME280;41676;44.610;44.078;2023-08-06T05:57:03;99862.94;;;33.05;36.26
55757;BME280;41676;44.610;44.078;2023-08-06T06:02:04;99853.88;;;33.34;35.46
55757;BME280;41676;44.610;44.078;2023-08-06T06:07:05;99866.69;;;33.39;34.81
55757;BME280;41676;44.610;44.078;2023-08-06T06:12:06;99782.34;;;32.96;35.54
55757;BME280;41676;44.610;44.078;2023-08-06T06:17:07;99823.69;;;33.47;35.12
55757;BME280;41676;44.610;44.078;2023-08-06T06:22:07;99833.81;;;33.63;34.36
55757;BME280;41676;44.610;44.078;2023-08-06T06:27:08;99831.00;;;33.72;34.42
55757;BME280;41676;44.610;44.078;2023-08-06T06:32:09;99786.03;;;33.59;33.44
55757;BME280;41676;44.610;44.078;2023-08-06T06:37:10;99828.69;;;33.95;33.65
55757;BME280;41676;44.610;44.078;2023-08-06T06:42:10;99796.78;;;34.15;33.36
55757;BME280;41676;44.610;44.078;2023-08-06T06:47:11;99809.22;;;34.34;32.69
55757;BME280;41676;44.610;44.078;2023-08-06T06:52:12;99775.81;;;34.35;32.69
55757;BME280;41676;44.610;44.078;2023-08-06T06:57:13;99763.09;;;34.55;32.81
55757;BME280;41676;44.610;44.078;2023-08-06T07:02:13;99764.97;;;34.88;31.46
55757;BME280;41676;44.610;44.078;2023-08-06T07:07:14;99755.69;;;35.05;31.13
55757;BME280;41676;44.610;44.078;2023-08-06T07:12:15;99730.81;;;35.17;30.16
55757;BME280;41676;44.610;44.078;2023-08-06T07:17:15;99739.50;;;35.43;30.11
55757;BME280;41676;44.610;44.078;2023-08-06T07:22:16;99722.25;;;35.34;28.65
55757;BME280;41676;44.610;44.078;2023-08-06T07:27:17;99681.78;;;35.26;28.67
55757;BME280;41676;44.610;44.078;2023-08-06T07:32:18;99707.13;;;35.84;28.47
55757;BME280;41676;44.610;44.078;2023-08-06T07:37:19;99676.66;;;35.97;27.79
55757;BME280;41676;44.610;44.078;2023-08-06T07:42:19;99697.75;;;36.17;27.62
55757;BME280;41676;44.610;44.078;2023-08-06T07:47:21;99649.22;;;36.04;27.64
55757;BME280;41676;44.610;44.078;2023-08-06T07:52:22;99677.78;;;36.24;26.97
55757;BME280;41676;44.610;44.078;2023-08-06T07:57:23;99677.31;;;36.38;27.34
55757;BME280;41676;44.610;44.078;2023-08-06T08:02:24;99661.78;;;36.49;26.87
55757;BME280;41676;44.610;44.078;2023-08-06T08:07:25;99657.28;;;36.76;27.39
55757;BME280;41676;44.610;44.078;2023-08-06T08:12:28;99668.53;;;37.18;27.21
55757;BME280;41676;44.610;44.078;2023-08-06T08:17:28;99665.19;;;37.29;26.53
55757;BME280;41676;44.610;44.078;2023-08-06T08:22:29;99656.94;;;37.32;26.54
55757;BME280;41676;44.610;44.078;2023-08-06T08:27:30;99573.84;;;36.93;26.60
55757;BME280;41676;44.610;44.078;2023-08-06T08:32:31;99654.28;;;37.55;26.25
55757;BME280;41676;44.610;44.078;2023-08-06T08:37:31;99636.78;;;37.74;26.99
55757;BME280;41676;44.610;44.078;2023-08-06T08:42:32;99618.38;;;37.85;26.57
55757;BME280;41676;44.610;44.078;2023-08-06T08:47:33;99523.56;;;37.30;26.29
55757;BME280;41676;44.610;44.078;2023-08-06T08:52:36;99591.09;;;37.87;26.39
55757;BME280;41676;44.610;44.078;2023-08-06T08:57:36;99545.81;;;37.80;26.84
55757;BME280;41676;44.610;44.078;2023-08-06T09:02:38;99604.53;;;38.35;26.32
55757;BME280;41676;44.610;44.078;2023-08-06T09:07:42;99592.84;;;38.45;26.71
55757;BME280;41676;44.610;44.078;2023-08-06T09:12:48;99568.56;;;38.39;26.79
55757;BME280;41676;44.610;44.078;2023-08-06T09:17:49;99568.91;;;38.37;26.89
55757;BME280;41676;44.610;44.078;2023-08-06T09:27:59;99480.66;;;38.16;27.45
55757;BME280;41676;44.610;44.078;2023-08-06T09:33:01;99541.09;;;38.56;26.33
55757;BME280;41676;44.610;44.078;2023-08-06T09:38:10;99498.13;;;38.47;26.57
55757;BME280;41676;44.610;44.078;2023-08-06T09:43:12;99538.91;;;38.73;26.81
55757;BME280;41676;44.610;44.078;2023-08-06T09:48:13;99546.03;;;39.04;25.28
55757;BME280;41676;44.610;44.078;2023-08-06T09:53:14;99527.47;;;38.78;25.63
55757;BME280;41676;44.610;44.078;2023-08-06T09:58:15;99529.38;;;38.74;26.37
55757;BME280;41676;44.610;44.078;2023-08-06T10:03:16;99506.66;;;38.65;25.81
55757;BME280;41676;44.610;44.078;2023-08-06T10:08:18;99510.66;;;38.97;25.31
55757;BME280;41676;44.610;44.078;2023-08-06T10:13:20;99450.31;;;38.57;24.42
55757;BME280;41676;44.610;44.078;2023-08-06T10:18:22;99512.19;;;38.95;25.86
55757;BME280;41676;44.610;44.078;2023-08-06T10:23:33;99493.31;;;39.08;25.86
55757;BME280;41676;44.610;44.078;2023-08-06T10:28:36;99498.56;;;39.16;26.30
55757;BME280;41676;44.610;44.078;2023-08-06T10:33:47;99489.34;;;39.09;24.79
55757;BME280;41676;44.610;44.078;2023-08-06T10:38:49;99409.25;;;38.77;25.91
55757;BME280;41676;44.610;44.078;2023-08-06T10:43:50;99473.28;;;39.29;25.70
55757;BME280;41676;44.610;44.078;2023-08-06T10:54:09;99466.78;;;39.14;26.14
55757;BME280;41676;44.610;44.078;2023-08-06T10:59:10;99471.44;;;39.02;25.49
55757;BME280;41676;44.610;44.078;2023-08-06T11:04:11;99386.44;;;38.53;25.86
55757;BME280;41676;44.610;44.078;2023-08-06T11:09:16;99382.75;;;38.42;26.08
55757;BME280;41676;44.610;44.078;2023-08-06T11:14:17;99424.84;;;38.85;26.11
55757;BME280;41676;44.610;44.078;2023-08-06T11:19:17;99384.50;;;38.57;26.51
55757;BME280;41676;44.610;44.078;2023-08-06T11:24:18;99395.59;;;38.57;25.71
55757;BME280;41676;44.610;44.078;2023-08-06T11:29:19;99428.88;;;38.91;26.07
55757;BME280;41676;44.610;44.078;2023-08-06T11:34:21;99392.22;;;38.75;25.69
55757;BME280;41676;44.610;44.078;2023-08-06T11:39:22;99389.50;;;38.82;25.83
55757;BME280;41676;44.610;44.078;2023-08-06T11:44:23;99400.44;;;39.01;25.80
55757;BME280;41676;44.610;44.078;2023-08-06T11:49:47;99404.94;;;39.20;25.12
55757;BME280;41676;44.610;44.078;2023-08-06T11:55:05;99404.78;;;39.02;24.19
55757;BME280;41676;44.610;44.078;2023-08-06T12:00:09;99381.69;;;38.91;24.31
55757;BME280;41676;44.610;44.078;2023-08-06T12:05:15;99364.78;;;38.70;24.76
55757;BME280;41676;44.610;44.078;2023-08-06T12:10:17;99366.31;;;38.64;25.28
55757;BME280;41676;44.610;44.078;2023-08-06T12:15:19;99374.81;;;38.81;25.40
55757;BME280;41676;44.610;44.078;2023-08-06T12:20:20;99320.78;;;38.34;25.57
55757;BME280;41676;44.610;44.078;2023-08-06T12:25:21;99313.22;;;38.31;25.64
55757;BME280;41676;44.610;44.078;2023-08-06T12:30:23;99368.84;;;38.79;26.16
55757;BME280;41676;44.610;44.078;2023-08-06T12:35:24;99368.69;;;38.65;25.73
55757;BME280;41676;44.610;44.078;2023-08-06T12:40:26;99355.16;;;38.56;25.85
55757;BME280;41676;44.610;44.078;2023-08-06T12:45:27;99366.38;;;38.71;25.87
55757;BME280;41676;44.610;44.078;2023-08-06T12:50:28;99357.53;;;38.58;25.80
55757;BME280;41676;44.610;44.078;2023-08-06T12:55:29;99294.78;;;38.09;26.39
55757;BME280;41676;44.610;44.078;2023-08-06T13:00:30;99336.88;;;38.18;26.94
55757;BME280;41676;44.610;44.078;2023-08-06T13:05:31;99356.31;;;38.22;27.14
55757;BME280;41676;44.610;44.078;2023-08-06T13:10:31;99262.13;;;37.65;27.19
55757;BME280;41676;44.610;44.078;2023-08-06T13:15:32;99341.19;;;38.16;27.18
55757;BME280;41676;44.610;44.078;2023-08-06T13:20:33;99307.97;;;37.89;27.73
55757;BME280;41676;44.610;44.078;2023-08-06T13:25:34;99326.34;;;38.01;28.95
55757;BME280;41676;44.610;44.078;2023-08-06T13:30:37;99328.66;;;37.95;29.21
55757;BME280;41676;44.610;44.078;2023-08-06T13:35:42;99321.75;;;37.82;29.11
55757;BME280;41676;44.610;44.078;2023-08-06T13:40:43;99317.34;;;37.81;29.08
55757;BME280;41676;44.610;44.078;2023-08-06T13:45:44;99328.78;;;37.76;29.04
55757;BME280;41676;44.610;44.078;2023-08-06T13:50:45;99323.56;;;37.71;29.42
55757;BME280;41676;44.610;44.078;2023-08-06T13:55:46;99307.03;;;37.47;30.48
55757;BME280;41676;44.610;44.078;2023-08-06T14:00:47;99316.03;;;37.44;30.41
55757;BME280;41676;44.610;44.078;2023-08-06T14:05:47;99282.78;;;37.14;30.60
55757;BME280;41676;44.610;44.078;2023-08-06T14:10:50;99311.94;;;37.08;31.41
55757;BME280;41676;44.610;44.078;2023-08-06T14:15:50;99310.50;;;37.18;31.48
55757;BME280;41676;44.610;44.078;2023-08-06T14:20:51;99237.78;;;36.71;31.95
55757;BME280;41676;44.610;44.078;2023-08-06T14:25:52;99318.59;;;37.04;32.40
55757;BME280;41676;44.610;44.078;2023-08-06T14:30:53;99188.03;;;36.06;33.08
55757;BME280;41676;44.610;44.078;2023-08-06T14:35:54;99306.91;;;36.68;32.77
55757;BME280;41676;44.610;44.078;2023-08-06T14:40:54;99253.03;;;36.19;33.09
55757;BME280;41676;44.610;44.078;2023-08-06T14:45:55;99258.38;;;36.08;33.14
55757;BME280;41676;44.610;44.078;2023-08-06T14:50:56;99306.59;;;36.30;33.40
55757;BME280;41676;44.610;44.078;2023-08-06T14:55:56;99239.91;;;35.74;33.09
55757;BME280;41676;44.610;44.078;2023-08-06T15:00:57;99247.16;;;35.62;32.89
55757;BME280;41676;44.610;44.078;2023-08-06T15:05:58;99324.47;;;35.98;32.73
55757;BME280;41676;44.610;44.078;2023-08-06T15:10:59;99298.50;;;35.63;32.89
55757;BME280;41676;44.610;44.078;2023-08-06T15:16:03;99255.22;;;35.16;33.15
55757;BME280;41676;44.610;44.078;2023-08-06T15:21:04;99274.44;;;35.13;32.67
55757;BME280;41676;44.610;44.078;2023-08-06T15:26:04;99330.63;;;35.36;32.17
55757;BME280;41676;44.610;44.078;2023-08-06T15:31:05;99303.97;;;34.96;32.55
55757;BME280;41676;44.610;44.078;2023-08-06T15:36:08;99324.63;;;35.03;32.36
55757;BME280;41676;44.610;44.078;2023-08-06T15:41:09;99328.91;;;34.84;32.63
55757;BME280;41676;44.610;44.078;2023-08-06T15:46:10;99330.94;;;34.71;32.42
55757;BME280;41676;44.610;44.078;2023-08-06T15:51:10;99273.34;;;34.10;32.70
55757;BME280;41676;44.610;44.078;2023-08-06T15:56:11;99348.91;;;34.37;32.50
55757;BME280;41676;44.610;44.078;2023-08-06T16:01:12;99327.31;;;34.11;32.70
55757;BME280;41676;44.610;44.078;2023-08-06T16:06:14;99349.00;;;34.13;32.66
55757;BME280;41676;44.610;44.078;2023-08-06T16:11:15;99347.66;;;33.94;32.82
55757;BME280;41676;44.610;44.078;2023-08-06T16:16:16;99339.69;;;33.64;32.46
55757;BME280;41676;44.610;44.078;2023-08-06T16:21:17;99328.47;;;33.45;32.22
55757;BME280;41676;44.610;44.078;2023-08-06T16:26:18;99361.59;;;33.49;32.23
55757;BME280;41676;44.610;44.078;2023-08-06T16:31:20;99357.91;;;33.32;32.04
55757;BME280;41676;44.610;44.078;2023-08-06T16:36:21;99363.00;;;33.18;31.87
55757;BME280;41676;44.610;44.078;2023-08-06T16:41:22;99361.47;;;33.08;31.78
55757;BME280;41676;44.610;44.078;2023-08-06T16:46:23;99346.38;;;32.81;31.54
55757;BME280;41676;44.610;44.078;2023-08-06T16:51:24;99344.16;;;32.62;31.65
55757;BME280;41676;44.610;44.078;2023-08-06T16:56:25;99361.09;;;32.52;32.66
55757;BME280;41676;44.610;44.078;2023-08-06T17:01:26;99371.50;;;32.46;32.52
55757;BME280;41676;44.610;44.078;2023-08-06T17:06:26;99366.59;;;32.31;32.75
55757;BME280;41676;44.610;44.078;2023-08-06T17:11:30;99384.28;;;32.21;33.37
55757;BME280;41676;44.610;44.078;2023-08-06T17:16:31;99359.25;;;32.02;33.22
55757;BME280;41676;44.610;44.078;2023-08-06T17:21:31;99371.75;;;31.91;33.87
55757;BME280;41676;44.610;44.078;2023-08-06T17:26:34;99350.28;;;31.63;33.90
55757;BME280;41676;44.610;44.078;2023-08-06T17:31:34;99383.72;;;31.65;34.36
55757;BME280;41676;44.610;44.078;2023-08-06T17:36:35;99305.69;;;31.07;35.33
55757;BME280;41676;44.610;44.078;2023-08-06T17:41:36;99367.69;;;31.37;35.92
55757;BME280;41676;44.610;44.078;2023-08-06T17:46:36;99379.03;;;31.27;36.70
55757;BME280;41676;44.610;44.078;2023-08-06T17:51:37;99243.19;;;30.36;37.39
55757;BME280;41676;44.610;44.078;2023-08-06T17:56:38;99371.47;;;31.15;37.76
55757;BME280;41676;44.610;44.078;2023-08-06T18:01:39;99344.94;;;30.90;37.75
55757;BME280;41676;44.610;44.078;2023-08-06T18:06:39;99242.38;;;30.09;38.52
55757;BME280;41676;44.610;44.078;2023-08-06T18:11:41;99354.81;;;30.65;38.53
55757;BME280;41676;44.610;44.078;2023-08-06T18:16:42;99336.31;;;30.44;39.23
55757;BME280;41676;44.610;44.078;2023-08-06T18:21:42;99356.31;;;30.36;39.07
55757;BME280;41676;44.610;44.078;2023-08-06T18:26:44;99370.19;;;30.40;39.41
55757;BME280;41676;44.610;44.078;2023-08-06T18:31:45;99352.13;;;30.30;39.03
55757;BME280;41676;44.610;44.078;2023-08-06T18:36:46;99356.50;;;30.22;39.25
55757;BME280;41676;44.610;44.078;2023-08-06T18:41:47;99293.16;;;29.72;39.73
55757;BME280;41676;44.610;44.078;2023-08-06T18:46:48;99367.41;;;30.05;40.07
55757;BME280;41676;44.610;44.078;2023-08-06T18:51:48;99332.28;;;29.72;40.36
55757;BME280;41676;44.610;44.078;2023-08-06T18:56:49;99353.22;;;29.77;40.75
55757;BME280;41676;44.610;44.078;2023-08-06T19:01:50;99342.50;;;29.58;40.73
55757;BME280;41676;44.610;44.078;2023-08-06T19:06:51;99327.97;;;29.40;41.41
55757;BME280;41676;44.610;44.078;2023-08-06T19:11:51;99266.88;;;28.96;41.77
55757;BME280;41676;44.610;44.078;2023-08-06T19:16:52;99354.38;;;29.36;42.22
55757;BME280;41676;44.610;44.078;2023-08-06T19:21:53;99255.03;;;28.70;42.72
55757;BME280;41676;44.610;44.078;2023-08-06T19:26:54;99309.47;;;28.97;43.14
55757;BME280;41676;44.610;44.078;2023-08-06T19:31:55;99336.75;;;29.11;43.65
55757;BME280;41676;44.610;44.078;2023-08-06T19:36:55;99278.63;;;28.65;43.87
55757;BME280;41676;44.610;44.078;2023-08-06T19:41:56;99263.09;;;28.43;44.35
55757;BME280;41676;44.610;44.078;2023-08-06T19:46:57;99334.69;;;28.85;44.75
55757;BME280;41676;44.610;44.078;2023-08-06T19:51:58;99334.00;;;28.80;45.19
55757;BME280;41676;44.610;44.078;2023-08-06T19:56:58;99315.59;;;28.63;45.55
55757;BME280;41676;44.610;44.078;2023-08-06T20:01:59;99310.72;;;28.51;46.00
55757;BME280;41676;44.610;44.078;2023-08-06T20:07:00;99315.34;;;28.51;46.35
55757;BME280;41676;44.610;44.078;2023-08-06T20:12:01;99324.16;;;28.48;46.54
55757;BME280;41676;44.610;44.078;2023-08-06T20:17:01;99318.59;;;28.39;46.85
55757;BME280;41676;44.610;44.078;2023-08-06T20:22:05;99258.97;;;27.87;47.46
55757;BME280;41676;44.610;44.078;2023-08-06T20:27:06;99287.34;;;28.00;47.84
55757;BME280;41676;44.610;44.078;2023-08-06T20:32:07;99285.84;;;27.94;48.50
55757;BME280;41676;44.610;44.078;2023-08-06T20:37:08;99321.28;;;28.08;48.90
55757;BME280;41676;44.610;44.078;2023-08-06T20:42:08;99204.16;;;27.25;49.46
55757;BME280;41676;44.610;44.078;2023-08-06T20:47:09;99280.75;;;27.65;50.10
55757;BME280;41676;44.610;44.078;2023-08-06T20:52:10;99321.47;;;27.89;50.52
55757;BME280;41676;44.610;44.078;2023-08-06T20:57:11;99331.97;;;27.82;51.06
55757;BME280;41676;44.610;44.078;2023-08-06T21:02:12;99306.53;;;27.59;51.82
55757;BME280;41676;44.610;44.078;2023-08-06T21:07:13;99311.78;;;27.55;52.42
55757;BME280;41676;44.610;44.078;2023-08-06T21:12:13;99315.06;;;27.43;53.32
55757;BME280;41676;44.610;44.078;2023-08-06T21:17:14;99307.25;;;27.37;54.25
55757;BME280;41676;44.610;44.078;2023-08-06T21:22:15;99307.16;;;27.28;54.61
55757;BME280;41676;44.610;44.078;2023-08-06T21:27:16;99294.75;;;27.22;55.24
55757;BME280;41676;44.610;44.078;2023-08-06T21:32:16;99300.63;;;27.15;56.37
55757;BME280;41676;44.610;44.078;2023-08-06T21:37:17;99234.78;;;26.67;57.30
55757;BME280;41676;44.610;44.078;2023-08-06T21:42:18;99305.44;;;27.04;58.31
55757;BME280;41676;44.610;44.078;2023-08-06T21:47:19;99228.28;;;26.49;58.79
55757;BME280;41676;44.610;44.078;2023-08-06T21:52:19;99319.16;;;26.99;60.03
55757;BME280;41676;44.610;44.078;2023-08-06T21:57:20;99316.72;;;26.98;60.63
55757;BME280;41676;44.610;44.078;2023-08-06T22:02:21;99266.16;;;26.64;61.94
55757;BME280;41676;44.610;44.078;2023-08-06T22:07:22;99307.63;;;26.89;62.51
55757;BME280;41676;44.610;44.078;2023-08-06T22:12:22;99289.16;;;26.72;64.17
55757;BME280;41676;44.610;44.078;2023-08-06T22:17:23;99284.09;;;26.65;65.26
55757;BME280;41676;44.610;44.078;2023-08-06T22:22:24;99298.22;;;26.67;65.68
55757;BME280;41676;44.610;44.078;2023-08-06T22:27:24;99294.19;;;26.64;66.24
55757;BME280;41676;44.610;44.078;2023-08-06T22:32:25;99286.94;;;26.60;66.37
55757;BME280;41676;44.610;44.078;2023-08-06T22:37:29;99222.06;;;26.15;66.84
55757;BME280;41676;44.610;44.078;2023-08-06T22:42:30;99298.03;;;26.63;66.98
55757;BME280;41676;44.610;44.078;2023-08-06T22:47:32;99299.84;;;26.68;67.23
55757;BME280;41676;44.610;44.078;2023-08-06T22:52:33;99275.81;;;26.56;67.19
55757;BME280;41676;44.610;44.078;2023-08-06T22:57:34;99288.53;;;26.61;67.17
55757;BME280;41676;44.610;44.078;2023-08-06T23:02:35;99295.50;;;26.67;67.41
55757;BME280;41676;44.610;44.078;2023-08-06T23:07:38;99294.19;;;26.64;67.39
55757;BME280;41676;44.610;44.078;2023-08-06T23:12:39;99304.06;;;26.60;67.97
55757;BME280;41676;44.610;44.078;2023-08-06T23:17:39;99279.69;;;26.36;68.82
55757;BME280;41676;44.610;44.078;2023-08-06T23:22:40;99284.47;;;26.26;69.53
55757;BME280;41676;44.610;44.078;2023-08-06T23:27:41;99290.50;;;26.23;69.95
55757;BME280;41676;44.610;44.078;2023-08-06T23:32:42;99293.34;;;26.17;70.78
55757;BME280;41676;44.610;44.078;2023-08-06T23:37:43;99293.03;;;26.19;70.81
55757;BME280;41676;44.610;44.078;2023-08-06T23:42:44;99217.22;;;25.74;71.05
55757;BME280;41676;44.610;44.078;2023-08-06T23:47:44;99284.59;;;26.21;70.98
55757;BME280;41676;44.610;44.078;2023-08-06T23:52:45;99209.66;;;25.71;70.76
55757;BME280;41676;44.610;44.078;2023-08-06T23:57:46;99271.31;;;26.14;70.61
